createdAt,value
2023-01-07T00:00:35.405Z,100.00
2023-01-07T00:03:37.879Z,100.00
2023-01-07T00:06:42.087Z,100.00
2023-01-07T00:09:43.498Z,100.00
2023-01-07T00:12:44.927Z,100.00
2023-01-07T00:15:46.496Z,100.00
2023-01-07T00:18:48.125Z,100.00
2023-01-07T00:21:49.634Z,100.00
2023-01-07T00:24:51.199Z,100.00
2023-01-07T00:27:52.743Z,100.00
2023-01-07T00:31:00.061Z,100.00
2023-01-07T00:34:01.967Z,100.00
2023-01-07T00:37:21.958Z,100.00
2023-01-07T00:40:23.783Z,100.00
2023-01-07T00:43:25.681Z,100.00
2023-01-07T00:46:27.464Z,100.00
2023-01-07T00:49:29.620Z,100.00
2023-01-07T00:52:31.128Z,100.00
2023-01-07T00:55:33.311Z,100.00
2023-01-07T00:58:34.968Z,100.00
2023-01-07T01:01:36.647Z,100.00
2023-01-07T01:04:38.246Z,100.00
2023-01-07T01:07:40.487Z,100.00
2023-01-07T01:10:41.966Z,100.00
2023-01-07T01:13:44.952Z,100.00
2023-01-07T01:16:46.521Z,100.00
2023-01-07T01:19:48.030Z,100.00
2023-01-07T01:22:49.543Z,100.00
2023-01-07T01:25:51.075Z,100.00
2023-01-07T01:28:52.646Z,100.00
2023-01-07T01:31:58.022Z,100.00
2023-01-07T01:34:59.695Z,100.00
2023-01-07T01:38:01.857Z,100.00
2023-01-07T01:41:07.405Z,100.00
2023-01-07T01:44:29.139Z,100.00
2023-01-07T01:47:49.223Z,100.00
2023-01-07T01:50:52.342Z,100.00
2023-01-07T01:53:56.085Z,100.00
2023-01-07T01:57:00.378Z,100.00
2023-01-07T02:00:02.854Z,100.00
2023-01-07T02:03:18.147Z,100.00
2023-01-07T02:06:27.080Z,100.00
2023-01-07T02:09:30.260Z,100.00
2023-01-07T02:12:42.897Z,100.00
2023-01-07T02:16:13.587Z,100.00
2023-01-07T02:19:53.596Z,100.00
2023-01-07T02:23:22.629Z,100.00
2023-01-07T02:26:56.988Z,100.00
2023-01-07T02:30:22.903Z,100.00
2023-01-07T02:33:28.719Z,100.00
2023-01-07T02:36:49.988Z,100.00
2023-01-07T02:39:58.601Z,100.00
2023-01-07T02:43:16.370Z,100.00
2023-01-07T02:46:48.335Z,100.00
2023-01-07T02:49:50.044Z,100.00
2023-01-07T02:52:52.232Z,100.00
2023-01-07T02:56:05.869Z,100.00
2023-01-07T02:59:14.640Z,100.00
2023-01-07T03:02:42.486Z,100.00
2023-01-07T03:06:24.448Z,100.00
2023-01-07T03:09:28.006Z,100.00
2023-01-07T03:13:08.661Z,100.00
2023-01-07T03:16:18.314Z,100.00
2023-01-07T03:19:28.203Z,100.00
2023-01-07T03:22:33.116Z,100.00
2023-01-07T03:25:37.851Z,100.00
2023-01-07T03:28:42.451Z,100.00
2023-01-07T03:32:13.808Z,100.00
2023-01-07T03:35:15.853Z,100.00
2023-01-07T03:38:20.791Z,100.00
2023-01-07T03:41:41.085Z,100.00
2023-01-07T03:44:42.717Z,100.00
2023-01-07T03:47:47.634Z,100.00
2023-01-07T03:50:49.639Z,100.00
2023-01-07T03:53:51.559Z,100.00
2023-01-07T03:56:53.147Z,100.00
2023-01-07T03:59:55.874Z,100.00
2023-01-07T04:02:57.481Z,100.00
2023-01-07T04:06:06.447Z,100.00
2023-01-07T04:09:08.076Z,100.00
2023-01-07T04:12:09.926Z,100.00
2023-01-07T04:15:11.644Z,100.00
2023-01-07T04:18:13.317Z,100.00
2023-01-07T04:21:14.908Z,100.00
2023-01-07T04:24:16.638Z,100.00
2023-01-07T04:27:18.682Z,100.00
2023-01-07T04:30:20.362Z,100.00
2023-01-07T04:33:21.915Z,100.00
2023-01-07T04:36:23.782Z,100.00
2023-01-07T04:39:25.339Z,100.00
2023-01-07T04:42:27.740Z,100.00
2023-01-07T04:45:29.355Z,100.00
2023-01-07T04:48:31.953Z,100.00
2023-01-07T04:51:34.472Z,100.00
2023-01-07T04:54:36.104Z,100.00
2023-01-07T04:57:38.908Z,100.00
2023-01-07T05:00:41.424Z,100.00
2023-01-07T05:03:43.244Z,100.00
2023-01-07T05:06:44.766Z,100.00
2023-01-07T05:09:47.515Z,100.00
2023-01-07T05:12:50.231Z,100.00
2023-01-07T05:15:53.354Z,100.00
2023-01-07T05:18:55.469Z,100.00
2023-01-07T05:21:57.216Z,100.00
2023-01-07T05:24:58.712Z,100.00
2023-01-07T05:28:02.114Z,100.00
2023-01-07T05:31:05.737Z,100.00
2023-01-07T05:34:08.473Z,100.00
2023-01-07T05:37:10.349Z,100.00
2023-01-07T05:40:13.659Z,100.00
2023-01-07T05:43:16.063Z,100.00
2023-01-07T05:46:17.766Z,100.00
2023-01-07T05:49:19.325Z,100.00
2023-01-07T05:52:20.829Z,100.00
2023-01-07T05:55:22.334Z,100.00
2023-01-07T05:58:24.354Z,100.00
2023-01-07T06:01:25.921Z,100.00
2023-01-07T06:04:28.105Z,100.00
2023-01-07T06:07:29.662Z,100.00
2023-01-07T06:10:31.187Z,100.00
2023-01-07T06:13:33.361Z,100.00
2023-01-07T06:16:35.383Z,100.00
2023-01-07T06:19:36.993Z,100.00
2023-01-07T06:22:38.439Z,100.00
2023-01-07T06:25:39.896Z,100.00
2023-01-07T06:28:41.393Z,100.00
2023-01-07T06:31:42.941Z,100.00
2023-01-07T06:34:44.380Z,100.00
2023-01-07T06:37:45.901Z,100.00
2023-01-07T06:40:47.420Z,100.00
2023-01-07T06:43:48.999Z,100.00
2023-01-07T06:46:50.637Z,100.00
2023-01-07T06:49:52.793Z,100.00
2023-01-07T06:52:54.296Z,100.00
2023-01-07T06:55:55.732Z,100.00
2023-01-07T06:58:57.285Z,100.00
2023-01-07T07:01:58.832Z,100.00
2023-01-07T07:05:00.499Z,100.00
2023-01-07T07:08:02.042Z,100.00
2023-01-07T07:11:03.668Z,100.00
2023-01-07T07:14:05.259Z,100.00
2023-01-07T07:17:06.782Z,100.00
2023-01-07T07:20:08.929Z,100.00
2023-01-07T07:23:10.350Z,100.00
2023-01-07T07:26:12.051Z,100.00
2023-01-07T07:29:13.502Z,100.00
2023-01-07T07:32:14.985Z,100.00
2023-01-07T07:35:16.562Z,100.00
2023-01-07T07:38:18.993Z,100.00
2023-01-07T07:41:21.377Z,100.00
2023-01-07T07:44:23.033Z,100.00
2023-01-07T07:47:24.559Z,100.00
2023-01-07T07:50:26.186Z,100.00
2023-01-07T07:53:27.749Z,100.00
2023-01-07T07:56:29.413Z,100.00
2023-01-07T07:59:30.962Z,100.00
2023-01-07T08:02:32.461Z,100.00
2023-01-07T08:05:34.088Z,100.00
2023-01-07T08:08:35.577Z,100.00
2023-01-07T08:11:37.076Z,100.00
2023-01-07T08:14:38.539Z,100.00
2023-01-07T08:17:40.010Z,100.00
2023-01-07T08:20:41.545Z,100.00
2023-01-07T08:23:43.180Z,100.00
2023-01-07T08:26:44.717Z,100.00
2023-01-07T08:29:46.334Z,100.00
2023-01-07T08:32:48.300Z,100.00
2023-01-07T08:35:49.826Z,100.00
2023-01-07T08:38:55.084Z,100.00
2023-01-07T08:41:56.602Z,100.00
2023-01-07T08:44:58.105Z,100.00
2023-01-07T08:48:00.580Z,100.00
2023-01-07T08:51:02.103Z,100.00
2023-01-07T08:54:03.805Z,100.00
2023-01-07T08:57:05.297Z,100.00
2023-01-07T09:00:07.731Z,100.00
2023-01-07T09:03:09.352Z,100.00
2023-01-07T09:06:10.973Z,100.00
2023-01-07T09:09:14.380Z,100.00
2023-01-07T09:12:15.863Z,100.00
2023-01-07T09:15:17.568Z,100.00
2023-01-07T09:18:20.397Z,99.12
2023-01-07T09:21:21.904Z,97.75
2023-01-07T09:24:23.418Z,98.25
2023-01-07T09:27:26.787Z,97.79
2023-01-07T09:30:28.472Z,96.80
2023-01-07T09:33:30.182Z,95.89
2023-01-07T09:36:31.662Z,95.47
2023-01-07T09:39:33.227Z,94.45
2023-01-07T09:47:18.986Z,94.12
2023-01-07T09:50:37.970Z,93.82
2023-01-07T09:53:41.389Z,93.30
2023-01-07T09:56:42.987Z,92.53
2023-01-07T09:59:45.302Z,92.15
2023-01-07T10:02:55.905Z,91.13
2023-01-07T10:06:09.811Z,91.05
2023-01-07T10:09:29.549Z,90.46
2023-01-07T10:12:54.133Z,90.56
2023-01-07T10:16:01.213Z,89.68
2023-01-07T10:19:05.784Z,88.41
2023-01-07T10:22:22.603Z,87.96
2023-01-07T10:25:32.114Z,87.71
2023-01-07T10:28:44.229Z,87.02
2023-01-07T10:31:46.844Z,86.32
2023-01-07T10:34:51.167Z,85.89
2023-01-07T10:38:26.839Z,84.92
2023-01-07T10:42:13.635Z,84.13
2023-01-07T10:45:36.562Z,83.87
2023-01-07T10:49:02.701Z,82.06
2023-01-07T10:52:51.610Z,81.22
2023-01-07T11:05:22.690Z,78.13
2023-01-07T11:08:32.467Z,78.12
2023-01-07T11:11:34.023Z,78.48
2023-01-07T11:14:40.893Z,77.29
2023-01-07T11:17:52.146Z,77.03
2023-01-07T11:20:55.989Z,74.88
2023-01-07T11:23:58.435Z,72.80
2023-01-07T11:27:15.739Z,69.18
2023-01-07T11:30:26.191Z,68.02
2023-01-07T11:34:03.419Z,66.55
2023-01-07T11:36:59.321Z,65.09
2023-01-07T11:40:05.255Z,63.88
2023-01-07T11:43:30.904Z,62.77
2023-01-07T11:46:33.113Z,62.76
2023-01-07T11:49:43.767Z,62.56
2023-01-07T11:52:55.936Z,61.11
2023-01-07T11:55:57.457Z,61.70
2023-01-07T11:59:20.740Z,60.88
2023-01-07T12:02:25.760Z,59.88
2023-01-07T12:05:28.143Z,59.87
2023-01-07T12:08:29.803Z,59.83
2023-01-07T12:11:34.097Z,59.04
2023-01-07T12:14:38.960Z,58.44
2023-01-07T12:17:46.106Z,57.95
2023-01-07T12:21:09.868Z,57.66
2023-01-07T12:24:36.380Z,57.78
2023-01-07T12:27:50.472Z,56.95
2023-01-07T12:31:19.744Z,56.09
2023-01-07T12:34:47.139Z,55.88
2023-01-07T12:38:14.963Z,55.72
2023-01-07T12:41:27.255Z,55.57
2023-01-07T12:44:28.837Z,55.84
2023-01-07T12:47:38.313Z,55.82
2023-01-07T12:50:47.998Z,55.70
2023-01-07T12:54:26.686Z,55.07
2023-01-07T12:57:36.729Z,55.59
2023-01-07T13:00:54.355Z,54.12
2023-01-07T13:04:28.136Z,53.62
2023-01-07T13:07:37.853Z,53.47
2023-01-07T13:10:43.129Z,53.21
2023-01-07T13:13:49.708Z,53.17
2023-01-07T13:16:51.246Z,53.29
2023-01-07T13:19:53.543Z,52.79
2023-01-07T13:22:56.675Z,52.34
2023-01-07T13:26:32.594Z,51.32
2023-01-07T13:29:58.480Z,51.99
2023-01-07T13:33:26.321Z,52.31
2023-01-07T13:36:39.827Z,52.11
2023-01-07T13:39:53.480Z,51.75
2023-01-07T13:42:59.786Z,51.62
2023-01-07T13:46:12.042Z,51.63
2023-01-07T13:49:29.126Z,52.14
2023-01-07T13:52:33.407Z,52.58
2023-01-07T13:55:40.904Z,52.50
2023-01-07T13:58:53.516Z,52.54
2023-01-07T14:02:16.257Z,52.45
2023-01-07T14:05:17.771Z,52.62
2023-01-07T14:08:28.369Z,52.55
2023-01-07T14:11:29.897Z,52.78
2023-01-07T14:14:49.425Z,53.18
2023-01-07T14:18:28.450Z,53.88
2023-01-07T14:21:56.571Z,54.91
2023-01-07T14:25:22.144Z,55.44
2023-01-07T14:28:52.859Z,55.41
2023-01-07T14:32:18.434Z,55.20
2023-01-07T14:35:32.371Z,55.32
2023-01-07T14:38:33.809Z,55.11
2023-01-07T14:41:35.403Z,55.43
2023-01-07T14:44:36.952Z,55.39
2023-01-07T14:47:41.214Z,55.90
2023-01-07T14:50:57.094Z,55.88
2023-01-07T14:54:32.719Z,56.32
2023-01-07T14:57:49.466Z,56.42
2023-01-07T15:01:00.200Z,56.95
2023-01-07T15:04:34.693Z,57.09
2023-01-07T15:07:40.021Z,56.88
2023-01-07T15:11:02.346Z,57.50
2023-01-07T15:14:33.116Z,58.09
2023-01-07T15:17:38.992Z,58.09
2023-01-07T15:20:49.638Z,58.13
2023-01-07T15:24:19.378Z,58.37
2023-01-07T15:27:29.753Z,59.24
2023-01-07T15:30:41.089Z,60.01
2023-01-07T15:34:04.006Z,60.46
2023-01-07T15:37:07.356Z,61.41
2023-01-07T15:40:16.321Z,62.98
2023-01-07T15:43:23.735Z,64.90
2023-01-07T15:46:27.108Z,66.82
2023-01-07T15:49:29.678Z,68.84
2023-01-07T15:52:31.298Z,70.02
2023-01-07T15:55:38.556Z,71.47
2023-01-07T15:58:45.790Z,72.66
2023-01-07T16:01:49.503Z,73.25
2023-01-07T16:04:59.605Z,75.01
2023-01-07T16:08:01.587Z,75.77
2023-01-07T16:11:09.080Z,77.00
2023-01-07T16:14:35.517Z,77.71
2023-01-07T16:17:49.946Z,78.94
2023-01-07T16:20:54.693Z,80.48
2023-01-07T16:23:56.463Z,80.64
2023-01-07T16:27:04.804Z,80.50
2023-01-07T16:30:15.157Z,81.41
2023-01-07T16:33:21.281Z,82.09
2023-01-07T16:36:28.318Z,82.73
2023-01-07T16:39:33.570Z,83.09
2023-01-07T16:42:35.067Z,83.88
2023-01-07T16:45:37.072Z,84.34
2023-01-07T16:48:38.509Z,85.39
2023-01-07T16:51:47.979Z,86.30
2023-01-07T16:54:50.132Z,86.15
2023-01-07T16:57:51.731Z,86.88
2023-01-07T17:00:56.155Z,87.28
2023-01-07T17:04:01.295Z,88.06
2023-01-07T17:11:52.107Z,89.48
2023-01-07T17:14:53.801Z,89.75
2023-01-07T17:18:15.175Z,89.91
2023-01-07T17:21:38.507Z,90.09
2023-01-07T17:24:39.966Z,90.31
2023-01-07T17:27:51.859Z,90.85
2023-01-07T17:30:53.607Z,91.48
2023-01-07T17:33:55.873Z,91.40
2023-01-07T17:36:57.416Z,91.12
2023-01-07T17:39:58.981Z,91.06
2023-01-07T17:43:18.767Z,91.43
2023-01-07T17:46:20.392Z,92.02
2023-01-07T17:49:22.066Z,92.22
2023-01-07T17:52:23.765Z,92.91
2023-01-07T17:55:28.996Z,93.33
2023-01-07T17:58:33.326Z,94.18
2023-01-07T18:01:35.045Z,94.17
2023-01-07T18:04:36.620Z,93.96
2023-01-07T18:07:38.229Z,94.70
2023-01-07T18:10:58.246Z,94.70
2023-01-07T18:14:00.117Z,95.43
2023-01-07T18:17:01.657Z,95.56
2023-01-07T18:20:03.304Z,95.44
2023-01-07T18:23:04.801Z,94.82
2023-01-07T18:26:07.254Z,96.29
2023-01-07T18:29:10.981Z,96.47
2023-01-07T18:32:12.508Z,95.94
2023-01-07T18:35:14.555Z,95.74
2023-01-07T18:38:16.500Z,95.92
2023-01-07T18:41:18.112Z,96.05
2023-01-07T18:44:21.742Z,96.39
2023-01-07T18:47:23.289Z,95.39
2023-01-07T18:50:24.861Z,95.31
2023-01-07T18:53:27.307Z,95.69
2023-01-07T18:56:28.907Z,95.43
2023-01-07T18:59:30.422Z,95.18
2023-01-07T19:02:31.992Z,96.28
2023-01-07T19:05:33.614Z,96.58
2023-01-07T19:08:35.245Z,97.50
2023-01-07T19:11:38.312Z,97.93
2023-01-07T19:14:40.580Z,97.51
2023-01-07T19:17:42.115Z,97.38
2023-01-07T19:20:43.625Z,97.37
2023-01-07T19:23:47.053Z,98.54
2023-01-07T19:26:48.839Z,98.14
2023-01-07T19:29:50.398Z,99.38
2023-01-07T19:32:53.163Z,98.78
2023-01-07T19:36:04.965Z,98.93
2023-01-07T19:39:06.517Z,99.38
2023-01-07T19:42:09.864Z,98.77
2023-01-07T19:45:11.569Z,98.65
2023-01-07T19:48:13.131Z,99.69
2023-01-07T19:51:14.777Z,99.96
2023-01-07T19:54:17.366Z,100.00
2023-01-07T19:57:18.876Z,100.00
2023-01-07T20:00:20.385Z,99.86
2023-01-07T20:03:21.893Z,99.77
2023-01-07T20:06:29.227Z,100.00
2023-01-07T20:09:30.839Z,100.00
2023-01-07T20:12:33.025Z,100.00
2023-01-07T20:15:34.630Z,100.00
2023-01-07T20:18:40.632Z,100.00
2023-01-07T20:21:42.259Z,100.00
2023-01-07T20:24:43.753Z,100.00
2023-01-07T20:27:45.278Z,100.00
2023-01-07T20:30:46.877Z,100.00
2023-01-07T20:33:50.346Z,100.00
2023-01-07T20:36:51.961Z,100.00
2023-01-07T20:39:56.885Z,100.00
2023-01-07T20:42:58.351Z,100.00
2023-01-07T20:46:02.212Z,100.00
2023-01-07T20:49:03.751Z,99.67
2023-01-07T20:52:05.491Z,99.68
2023-01-07T20:55:07.374Z,99.71
2023-01-07T20:58:08.930Z,99.42
2023-01-07T21:01:19.090Z,100.00
2023-01-07T21:04:20.671Z,100.00
2023-01-07T21:07:22.169Z,100.00
2023-01-07T21:10:23.670Z,100.00
2023-01-07T21:13:25.662Z,100.00
2023-01-07T21:16:28.481Z,99.34
2023-01-07T21:19:30.016Z,99.34
2023-01-07T21:22:31.517Z,98.84
2023-01-07T21:25:33.041Z,98.21
2023-01-07T21:28:35.516Z,99.11
2023-01-07T21:31:37.061Z,98.35
2023-01-07T21:34:38.588Z,98.21
2023-01-07T21:37:40.159Z,98.45
2023-01-07T21:40:41.719Z,98.43
2023-01-07T21:43:44.254Z,98.43
2023-01-07T21:46:45.813Z,97.43
2023-01-07T21:49:47.355Z,97.76
2023-01-07T21:52:48.945Z,98.33
2023-01-07T21:55:54.502Z,98.31
2023-01-07T21:58:56.022Z,98.24
2023-01-07T22:01:57.783Z,99.21
2023-01-07T22:04:59.370Z,99.05
2023-01-07T22:08:01.305Z,99.13
2023-01-07T22:11:02.962Z,98.13
2023-01-07T22:14:04.510Z,98.22
2023-01-07T22:17:07.510Z,98.01
2023-01-07T22:20:09.797Z,97.96
2023-01-07T22:23:17.363Z,98.36
2023-01-07T22:26:19.880Z,98.90
2023-01-07T22:29:21.624Z,99.78
2023-01-07T22:32:23.121Z,99.91
2023-01-07T22:35:24.910Z,99.89
2023-01-07T22:38:27.837Z,100.00
2023-01-07T22:41:31.396Z,100.00
2023-01-07T22:44:42.771Z,99.70
2023-01-07T22:47:48.349Z,100.00
2023-01-07T22:50:53.347Z,100.00
2023-01-07T22:53:57.880Z,100.00
2023-01-07T22:57:00.119Z,100.00
2023-01-07T23:00:02.178Z,100.00
2023-01-07T23:03:04.714Z,99.85
2023-01-07T23:06:06.493Z,100.00
2023-01-07T23:09:08.014Z,100.00
2023-01-07T23:12:11.039Z,100.00
2023-01-07T23:15:13.146Z,100.00
2023-01-07T23:18:14.837Z,100.00
2023-01-07T23:21:16.360Z,100.00
2023-01-07T23:24:18.524Z,100.00
2023-01-07T23:27:20.067Z,100.00
2023-01-07T23:30:21.805Z,100.00
2023-01-07T23:33:23.309Z,100.00
2023-01-07T23:36:24.948Z,100.00
2023-01-07T23:39:26.461Z,100.00
2023-01-07T23:42:28.118Z,100.00
2023-01-07T23:45:29.674Z,100.00
2023-01-07T23:48:34.167Z,100.00
2023-01-07T23:51:35.652Z,100.00
2023-01-07T23:54:37.089Z,100.00
2023-01-07T23:57:38.561Z,100.00
